Saint Francis River (Missouri), Patterson (07037500)

StateMissouriLatestLow (237 cfs)
RiverSaint Francis RiverRatingObservedEstimated
Updated2020-07-13 14:30 (38 minutes ago)Flood - The river is flooding. Obstacles can be treacherous or deadly. The river should be avoided at this stage for casual trips and definitely for the inexperienced. Trips should be attempted only with protective gear and equipment.Flood(none)4402
Discharge237 cfs (median: 124 cfs)High - The river is high and potentially dangerous, especially for the young and / or inexperienced. Normal stream obstacles are sometimes difficult to navigate. Extended distances can be attempted, but canoe travel may not be advisable.High(none)756
Height3.86 feetGood - Conditions are ideal for a canoe or kayak. Boats typically will drag on fewer than one-quarter of riffles, if at all, and portages are unnecessary or rare. Normal float lengths can be attempted without a problem.Good2000277
TrendSteady (falling over 24 hours)Low - River is low but can still be floated. Some riffles are okay but most come with significant dragging and might need a portage. Float lengths should be reduced to accommodate low flow, dragging, and portages.Low(none)121
USGSExternal icon USGS Site (External icon Google Maps)Poor - River is too low to float comfortably. Most or all riffles will drag or must be portaged and some obstacles (such as slick shelf rock) cause undue problems. Avoid the river at this stage for casual paddling trips.Poor(none)27

Trending Data

Plot Image

Trips for Saint Francis River (Missouri), Patterson (07037500)

DateStartEndDistanceConditionDischargeHeightFishingDetails
Click for details2009-05-08 Big Creek Sam Baker State Park Total trip distance: 11.6 miles0.3 Good 2660 8.77 None NoneNone Bowe, Michelle
Edmond, Brian
Bowe, Michelle; Edmond, Brian
No notes for this trip<i>No notes for this trip</i> USGS Gauge Data:
Patterson (07037500)
Discharge: 2660
Height: 8.77
<b>USGS Gauge Data:</b></br />Patterson (07037500)<br />Discharge: 2660<br />Height: 8.77
Source: EdmondSource: Edmond

A total of 1 rows are displayed.

Trip Summary for Saint Francis River (Missouri), Patterson (07037500)

Miles0.3
Trips1
People2
Dates1
Years1
Months1
Rows1
Sources1

Condition Descriptions

Fishing Conditions

Fish Species

Notes

Classic Trip List

The classic River Trips application is still available for use. It is updated with the new system using a data retrofit. It is no longer maintained. The original River Trips application is no longer updated (as of 1 Dec 2016) but can be checked for errors or for the condition of the data before it was converted to the new system.

Gauge Data Table

ObservationHeightDischargeMaximum
Discharge
Minimum
Discharge
Mean
Discharge
P05P10P20P25P50
(Median)
P75P80P90P95
2020-07-13 14:30 3.86 237 6000 (1951) 20 (1936) 250 30 40 71 77 124 227 268 393 630
2020-07-13 14:00 3.86 237 6000 (1951) 20 (1936) 250 30 40 71 77 124 227 268 393 630
2020-07-13 13:30 3.87 240 6000 (1951) 20 (1936) 250 30 40 71 77 124 227 268 393 630
2020-07-13 13:00 3.87 240 6000 (1951) 20 (1936) 250 30 40 71 77 124 227 268 393 630
2020-07-13 12:30 3.86 237 6000 (1951) 20 (1936) 250 30 40 71 77 124 227 268 393 630
2020-07-13 12:00 3.86 237 6000 (1951) 20 (1936) 250 30 40 71 77 124 227 268 393 630
2020-07-13 11:30 3.87 240 6000 (1951) 20 (1936) 250 30 40 71 77 124 227 268 393 630
2020-07-13 11:00 3.86 237 6000 (1951) 20 (1936) 250 30 40 71 77 124 227 268 393 630
2020-07-13 10:30 3.90 248 6000 (1951) 20 (1936) 250 30 40 71 77 124 227 268 393 630
2020-07-13 10:00 3.86 237 6000 (1951) 20 (1936) 250 30 40 71 77 124 227 268 393 630
2020-07-13 09:30 3.89 245 6000 (1951) 20 (1936) 250 30 40 71 77 124 227 268 393 630
2020-07-13 09:00 3.85 235 6000 (1951) 20 (1936) 250 30 40 71 77 124 227 268 393 630
2020-07-13 08:30 3.88 242 6000 (1951) 20 (1936) 250 30 40 71 77 124 227 268 393 630
2020-07-13 08:00 3.89 245 6000 (1951) 20 (1936) 250 30 40 71 77 124 227 268 393 630
2020-07-13 07:30 3.88 242 6000 (1951) 20 (1936) 250 30 40 71 77 124 227 268 393 630
2020-07-13 07:00 3.87 240 6000 (1951) 20 (1936) 250 30 40 71 77 124 227 268 393 630
2020-07-13 06:30 3.87 240 6000 (1951) 20 (1936) 250 30 40 71 77 124 227 268 393 630
2020-07-13 06:00 3.87 240 6000 (1951) 20 (1936) 250 30 40 71 77 124 227 268 393 630
2020-07-13 05:30 3.88 242 6000 (1951) 20 (1936) 250 30 40 71 77 124 227 268 393 630
2020-07-13 05:00 3.87 240 6000 (1951) 20 (1936) 250 30 40 71 77 124 227 268 393 630
2020-07-13 04:30 3.88 242 6000 (1951) 20 (1936) 250 30 40 71 77 124 227 268 393 630
2020-07-13 04:00 3.87 240 6000 (1951) 20 (1936) 250 30 40 71 77 124 227 268 393 630
2020-07-13 03:30 3.88 242 6000 (1951) 20 (1936) 250 30 40 71 77 124 227 268 393 630
2020-07-13 03:00 3.88 242 6000 (1951) 20 (1936) 250 30 40 71 77 124 227 268 393 630
2020-07-13 02:30 3.88 242 6000 (1951) 20 (1936) 250 30 40 71 77 124 227 268 393 630
2020-07-13 02:00 3.87 240 6000 (1951) 20 (1936) 250 30 40 71 77 124 227 268 393 630
2020-07-13 01:30 3.89 245 6000 (1951) 20 (1936) 250 30 40 71 77 124 227 268 393 630
2020-07-13 01:00 3.88 242 6000 (1951) 20 (1936) 250 30 40 71 77 124 227 268 393 630
2020-07-13 00:30 3.93 256 6000 (1951) 20 (1936) 250 30 40 71 77 124 227 268 393 630
2020-07-13 00:00 3.88 242 6000 (1951) 20 (1936) 250 30 40 71 77 124 227 268 393 630
2020-07-12 23:30 3.87 240 4510 (1951) 16 (1936) 278 31 36 69 79 118 257 295 459 742
2020-07-12 23:00 3.89 245 4510 (1951) 16 (1936) 278 31 36 69 79 118 257 295 459 742
2020-07-12 22:30 3.88 242 4510 (1951) 16 (1936) 278 31 36 69 79 118 257 295 459 742
2020-07-12 22:00 3.88 242 4510 (1951) 16 (1936) 278 31 36 69 79 118 257 295 459 742
2020-07-12 21:30 3.91 250 4510 (1951) 16 (1936) 278 31 36 69 79 118 257 295 459 742
2020-07-12 21:00 3.91 250 4510 (1951) 16 (1936) 278 31 36 69 79 118 257 295 459 742
2020-07-12 20:30 3.95 261 4510 (1951) 16 (1936) 278 31 36 69 79 118 257 295 459 742
2020-07-12 20:00 3.94 258 4510 (1951) 16 (1936) 278 31 36 69 79 118 257 295 459 742
2020-07-12 19:30 3.95 261 4510 (1951) 16 (1936) 278 31 36 69 79 118 257 295 459 742
2020-07-12 19:00 3.90 248 4510 (1951) 16 (1936) 278 31 36 69 79 118 257 295 459 742
2020-07-12 18:30 3.91 250 4510 (1951) 16 (1936) 278 31 36 69 79 118 257 295 459 742
2020-07-12 18:00 3.90 248 4510 (1951) 16 (1936) 278 31 36 69 79 118 257 295 459 742
2020-07-12 17:30 3.89 245 4510 (1951) 16 (1936) 278 31 36 69 79 118 257 295 459 742
2020-07-12 17:00 3.91 250 4510 (1951) 16 (1936) 278 31 36 69 79 118 257 295 459 742
2020-07-12 16:30 3.89 245 4510 (1951) 16 (1936) 278 31 36 69 79 118 257 295 459 742
2020-07-12 16:00 3.91 250 4510 (1951) 16 (1936) 278 31 36 69 79 118 257 295 459 742
2020-07-12 15:30 3.91 250 4510 (1951) 16 (1936) 278 31 36 69 79 118 257 295 459 742
2020-07-12 15:00 3.93 256 4510 (1951) 16 (1936) 278 31 36 69 79 118 257 295 459 742
2020-07-12 14:30 3.92 253 4510 (1951) 16 (1936) 278 31 36 69 79 118 257 295 459 742
2020-07-12 14:00 3.92 253 4510 (1951) 16 (1936) 278 31 36 69 79 118 257 295 459 742
2020-07-12 13:30 3.92 253 4510 (1951) 16 (1936) 278 31 36 69 79 118 257 295 459 742
2020-07-12 13:00 3.94 258 4510 (1951) 16 (1936) 278 31 36 69 79 118 257 295 459 742
2020-07-12 12:30 3.92 253 4510 (1951) 16 (1936) 278 31 36 69 79 118 257 295 459 742
2020-07-12 12:00 3.92 253 4510 (1951) 16 (1936) 278 31 36 69 79 118 257 295 459 742
2020-07-12 11:30 3.92 253 4510 (1951) 16 (1936) 278 31 36 69 79 118 257 295 459 742
2020-07-12 11:00 3.93 256 4510 (1951) 16 (1936) 278 31 36 69 79 118 257 295 459 742
2020-07-12 10:30 3.93 256 4510 (1951) 16 (1936) 278 31 36 69 79 118 257 295 459 742
2020-07-12 10:00 3.93 256 4510 (1951) 16 (1936) 278 31 36 69 79 118 257 295 459 742
2020-07-12 09:30 3.93 256 4510 (1951) 16 (1936) 278 31 36 69 79 118 257 295 459 742
2020-07-12 09:00 3.93 256 4510 (1951) 16 (1936) 278 31 36 69 79 118 257 295 459 742
2020-07-12 08:30 3.92 253 4510 (1951) 16 (1936) 278 31 36 69 79 118 257 295 459 742
2020-07-12 08:00 3.93 256 4510 (1951) 16 (1936) 278 31 36 69 79 118 257 295 459 742
2020-07-12 07:30 3.91 250 4510 (1951) 16 (1936) 278 31 36 69 79 118 257 295 459 742
2020-07-12 07:00 3.93 256 4510 (1951) 16 (1936) 278 31 36 69 79 118 257 295 459 742
2020-07-12 06:30 3.92 253 4510 (1951) 16 (1936) 278 31 36 69 79 118 257 295 459 742
2020-07-12 06:00 3.92 253 4510 (1951) 16 (1936) 278 31 36 69 79 118 257 295 459 742
2020-07-12 05:30 3.92 253 4510 (1951) 16 (1936) 278 31 36 69 79 118 257 295 459 742
2020-07-12 05:00 3.92 253 4510 (1951) 16 (1936) 278 31 36 69 79 118 257 295 459 742
2020-07-12 04:30 3.93 256 4510 (1951) 16 (1936) 278 31 36 69 79 118 257 295 459 742
2020-07-12 04:00 3.92 253 4510 (1951) 16 (1936) 278 31 36 69 79 118 257 295 459 742
2020-07-12 03:30 3.92 253 4510 (1951) 16 (1936) 278 31 36 69 79 118 257 295 459 742
2020-07-12 03:00 3.92 253 4510 (1951) 16 (1936) 278 31 36 69 79 118 257 295 459 742
2020-07-12 02:30 3.92 253 4510 (1951) 16 (1936) 278 31 36 69 79 118 257 295 459 742
2020-07-12 02:00 3.94 258 4510 (1951) 16 (1936) 278 31 36 69 79 118 257 295 459 742
2020-07-12 01:30 3.94 258 4510 (1951) 16 (1936) 278 31 36 69 79 118 257 295 459 742
2020-07-12 01:00 3.95 261 4510 (1951) 16 (1936) 278 31 36 69 79 118 257 295 459 742
2020-07-12 00:30 3.94 258 4510 (1951) 16 (1936) 278 31 36 69 79 118 257 295 459 742
2020-07-12 00:00 3.96 264 4510 (1951) 16 (1936) 278 31 36 69 79 118 257 295 459 742
2020-07-11 23:30 3.94 258 10800 (2015) 17 (1936) 394 33 37 71 77 123 252 342 560 817
2020-07-11 23:00 3.96 264 10800 (2015) 17 (1936) 394 33 37 71 77 123 252 342 560 817
2020-07-11 22:30 3.95 261 10800 (2015) 17 (1936) 394 33 37 71 77 123 252 342 560 817
2020-07-11 22:00 3.99 272 10800 (2015) 17 (1936) 394 33 37 71 77 123 252 342 560 817
2020-07-11 21:30 4.01 277 10800 (2015) 17 (1936) 394 33 37 71 77 123 252 342 560 817
2020-07-11 21:00 3.94 258 10800 (2015) 17 (1936) 394 33 37 71 77 123 252 342 560 817
2020-07-11 20:30 4.08 297 10800 (2015) 17 (1936) 394 33 37 71 77 123 252 342 560 817
2020-07-11 20:00 3.95 261 10800 (2015) 17 (1936) 394 33 37 71 77 123 252 342 560 817
2020-07-11 19:30 4.02 280 10800 (2015) 17 (1936) 394 33 37 71 77 123 252 342 560 817
2020-07-11 19:00 4.05 289 10800 (2015) 17 (1936) 394 33 37 71 77 123 252 342 560 817
2020-07-11 18:30 4.05 289 10800 (2015) 17 (1936) 394 33 37 71 77 123 252 342 560 817
2020-07-11 18:00 4.03 283 10800 (2015) 17 (1936) 394 33 37 71 77 123 252 342 560 817
2020-07-11 17:30 4.04 286 10800 (2015) 17 (1936) 394 33 37 71 77 123 252 342 560 817
2020-07-11 17:00 4.02 280 10800 (2015) 17 (1936) 394 33 37 71 77 123 252 342 560 817
2020-07-11 16:30 4.05 289 10800 (2015) 17 (1936) 394 33 37 71 77 123 252 342 560 817
2020-07-11 16:00 4.03 283 10800 (2015) 17 (1936) 394 33 37 71 77 123 252 342 560 817
2020-07-11 15:30 4.02 280 10800 (2015) 17 (1936) 394 33 37 71 77 123 252 342 560 817
2020-07-11 15:00 4.01 277 10800 (2015) 17 (1936) 394 33 37 71 77 123 252 342 560 817
2020-07-11 14:30 4.05 289 10800 (2015) 17 (1936) 394 33 37 71 77 123 252 342 560 817
2020-07-11 14:00 4.04 286 10800 (2015) 17 (1936) 394 33 37 71 77 123 252 342 560 817
2020-07-11 13:30 4.02 280 10800 (2015) 17 (1936) 394 33 37 71 77 123 252 342 560 817
2020-07-11 13:00 4.04 286 10800 (2015) 17 (1936) 394 33 37 71 77 123 252 342 560 817
2020-07-11 12:30 3.98 269 10800 (2015) 17 (1936) 394 33 37 71 77 123 252 342 560 817
2020-07-11 12:00 4.00 275 10800 (2015) 17 (1936) 394 33 37 71 77 123 252 342 560 817
2020-07-11 11:30 3.97 266 10800 (2015) 17 (1936) 394 33 37 71 77 123 252 342 560 817
2020-07-11 11:00 4.03 283 10800 (2015) 17 (1936) 394 33 37 71 77 123 252 342 560 817
2020-07-11 10:30 4.00 275 10800 (2015) 17 (1936) 394 33 37 71 77 123 252 342 560 817
2020-07-11 10:00 3.99 272 10800 (2015) 17 (1936) 394 33 37 71 77 123 252 342 560 817
2020-07-11 09:30 4.00 275 10800 (2015) 17 (1936) 394 33 37 71 77 123 252 342 560 817
2020-07-11 09:00 3.98 269 10800 (2015) 17 (1936) 394 33 37 71 77 123 252 342 560 817
2020-07-11 08:30 3.99 272 10800 (2015) 17 (1936) 394 33 37 71 77 123 252 342 560 817
2020-07-11 08:00 3.99 272 10800 (2015) 17 (1936) 394 33 37 71 77 123 252 342 560 817
2020-07-11 07:30 4.08 297 10800 (2015) 17 (1936) 394 33 37 71 77 123 252 342 560 817
2020-07-11 07:00 4.00 275 10800 (2015) 17 (1936) 394 33 37 71 77 123 252 342 560 817
2020-07-11 06:30 3.99 272 10800 (2015) 17 (1936) 394 33 37 71 77 123 252 342 560 817
2020-07-11 06:00 3.99 272 10800 (2015) 17 (1936) 394 33 37 71 77 123 252 342 560 817
2020-07-11 05:30 4.00 275 10800 (2015) 17 (1936) 394 33 37 71 77 123 252 342 560 817
2020-07-11 05:00 4.00 275 10800 (2015) 17 (1936) 394 33 37 71 77 123 252 342 560 817
2020-07-11 04:30 4.00 275 10800 (2015) 17 (1936) 394 33 37 71 77 123 252 342 560 817
2020-07-11 04:00 4.01 277 10800 (2015) 17 (1936) 394 33 37 71 77 123 252 342 560 817
2020-07-11 03:30 4.01 277 10800 (2015) 17 (1936) 394 33 37 71 77 123 252 342 560 817
2020-07-11 03:00 4.00 275 10800 (2015) 17 (1936) 394 33 37 71 77 123 252 342 560 817
2020-07-11 02:30 3.99 272 10800 (2015) 17 (1936) 394 33 37 71 77 123 252 342 560 817
2020-07-11 02:00 4.01 277 10800 (2015) 17 (1936) 394 33 37 71 77 123 252 342 560 817
2020-07-11 01:30 4.00 275 10800 (2015) 17 (1936) 394 33 37 71 77 123 252 342 560 817
2020-07-11 01:00 3.99 272 10800 (2015) 17 (1936) 394 33 37 71 77 123 252 342 560 817
2020-07-11 00:30 4.00 275 10800 (2015) 17 (1936) 394 33 37 71 77 123 252 342 560 817
2020-07-11 00:00 4.00 275 10800 (2015) 17 (1936) 394 33 37 71 77 123 252 342 560 817
2020-07-10 23:30 4.00 275 9280 (1951) 19 (1936) 355 32 42 68 79 131 271 359 634 862
2020-07-10 23:00 4.00 275 9280 (1951) 19 (1936) 355 32 42 68 79 131 271 359 634 862
2020-07-10 22:30 4.00 275 9280 (1951) 19 (1936) 355 32 42 68 79 131 271 359 634 862
2020-07-10 22:00 4.00 275 9280 (1951) 19 (1936) 355 32 42 68 79 131 271 359 634 862
2020-07-10 21:30 4.00 275 9280 (1951) 19 (1936) 355 32 42 68 79 131 271 359 634 862
2020-07-10 21:00 4.01 277 9280 (1951) 19 (1936) 355 32 42 68 79 131 271 359 634 862
2020-07-10 20:30 4.00 275 9280 (1951) 19 (1936) 355 32 42 68 79 131 271 359 634 862
2020-07-10 20:00 3.98 269 9280 (1951) 19 (1936) 355 32 42 68 79 131 271 359 634 862
2020-07-10 19:30 3.98 269 9280 (1951) 19 (1936) 355 32 42 68 79 131 271 359 634 862
2020-07-10 19:00 4.00 275 9280 (1951) 19 (1936) 355 32 42 68 79 131 271 359 634 862
2020-07-10 18:30 3.98 269 9280 (1951) 19 (1936) 355 32 42 68 79 131 271 359 634 862
2020-07-10 18:00 3.98 269 9280 (1951) 19 (1936) 355 32 42 68 79 131 271 359 634 862
2020-07-10 17:30 3.98 269 9280 (1951) 19 (1936) 355 32 42 68 79 131 271 359 634 862
2020-07-10 17:00 3.98 269 9280 (1951) 19 (1936) 355 32 42 68 79 131 271 359 634 862
2020-07-10 16:30 3.97 266 9280 (1951) 19 (1936) 355 32 42 68 79 131 271 359 634 862
2020-07-10 16:00 3.98 269 9280 (1951) 19 (1936) 355 32 42 68 79 131 271 359 634 862
2020-07-10 15:30 4.00 275 9280 (1951) 19 (1936) 355 32 42 68 79 131 271 359 634 862
2020-07-10 15:00 4.00 275 9280 (1951) 19 (1936) 355 32 42 68 79 131 271 359 634 862
2020-07-10 14:30 4.00 275 9280 (1951) 19 (1936) 355 32 42 68 79 131 271 359 634 862
2020-07-10 14:00 3.99 272 9280 (1951) 19 (1936) 355 32 42 68 79 131 271 359 634 862
2020-07-10 13:30 3.98 269 9280 (1951) 19 (1936) 355 32 42 68 79 131 271 359 634 862
2020-07-10 13:00 3.99 272 9280 (1951) 19 (1936) 355 32 42 68 79 131 271 359 634 862
2020-07-10 12:30 4.00 275 9280 (1951) 19 (1936) 355 32 42 68 79 131 271 359 634 862
2020-07-10 12:00 3.99 272 9280 (1951) 19 (1936) 355 32 42 68 79 131 271 359 634 862
2020-07-10 11:30 3.99 272 9280 (1951) 19 (1936) 355 32 42 68 79 131 271 359 634 862
2020-07-10 11:00 3.99 272 9280 (1951) 19 (1936) 355 32 42 68 79 131 271 359 634 862
2020-07-10 10:30 4.01 277 9280 (1951) 19 (1936) 355 32 42 68 79 131 271 359 634 862
2020-07-10 10:00 4.03 283 9280 (1951) 19 (1936) 355 32 42 68 79 131 271 359 634 862
2020-07-10 09:30 4.01 277 9280 (1951) 19 (1936) 355 32 42 68 79 131 271 359 634 862
2020-07-10 09:00 3.99 272 9280 (1951) 19 (1936) 355 32 42 68 79 131 271 359 634 862
2020-07-10 08:30 3.99 272 9280 (1951) 19 (1936) 355 32 42 68 79 131 271 359 634 862
2020-07-10 08:00 4.00 275 9280 (1951) 19 (1936) 355 32 42 68 79 131 271 359 634 862
2020-07-10 07:30 3.99 272 9280 (1951) 19 (1936) 355 32 42 68 79 131 271 359 634 862
2020-07-10 07:00 4.00 275 9280 (1951) 19 (1936) 355 32 42 68 79 131 271 359 634 862
2020-07-10 06:30 4.00 275 9280 (1951) 19 (1936) 355 32 42 68 79 131 271 359 634 862
2020-07-10 06:00 4.01 277 9280 (1951) 19 (1936) 355 32 42 68 79 131 271 359 634 862
2020-07-10 05:30 3.99 272 9280 (1951) 19 (1936) 355 32 42 68 79 131 271 359 634 862
2020-07-10 05:00 4.00 275 9280 (1951) 19 (1936) 355 32 42 68 79 131 271 359 634 862
2020-07-10 04:30 4.00 275 9280 (1951) 19 (1936) 355 32 42 68 79 131 271 359 634 862
2020-07-10 04:00 3.99 272 9280 (1951) 19 (1936) 355 32 42 68 79 131 271 359 634 862
2020-07-10 03:30 3.99 272 9280 (1951) 19 (1936) 355 32 42 68 79 131 271 359 634 862
2020-07-10 03:00 4.00 275 9280 (1951) 19 (1936) 355 32 42 68 79 131 271 359 634 862
2020-07-10 02:30 4.00 275 9280 (1951) 19 (1936) 355 32 42 68 79 131 271 359 634 862
2020-07-10 02:00 4.01 277 9280 (1951) 19 (1936) 355 32 42 68 79 131 271 359 634 862
2020-07-10 01:30 4.01 277 9280 (1951) 19 (1936) 355 32 42 68 79 131 271 359 634 862
2020-07-10 01:00 4.01 277 9280 (1951) 19 (1936) 355 32 42 68 79 131 271 359 634 862
2020-07-10 00:30 4.01 277 9280 (1951) 19 (1936) 355 32 42 68 79 131 271 359 634 862
2020-07-10 00:00 4.02 280 9280 (1951) 19 (1936) 355 32 42 68 79 131 271 359 634 862
2020-07-09 23:30 4.05 289 1140 (1987) 20 (1936) 241 34 46 69 81 133 250 381 703 982
2020-07-09 23:00 4.02 280 1140 (1987) 20 (1936) 241 34 46 69 81 133 250 381 703 982
2020-07-09 22:30 4.01 277 1140 (1987) 20 (1936) 241 34 46 69 81 133 250 381 703 982
2020-07-09 22:00 4.01 277 1140 (1987) 20 (1936) 241 34 46 69 81 133 250 381 703 982
2020-07-09 21:30 4.03 283 1140 (1987) 20 (1936) 241 34 46 69 81 133 250 381 703 982
2020-07-09 21:00 4.03 283 1140 (1987) 20 (1936) 241 34 46 69 81 133 250 381 703 982
2020-07-09 20:30 4.00 275 1140 (1987) 20 (1936) 241 34 46 69 81 133 250 381 703 982
2020-07-09 20:00 4.00 275 1140 (1987) 20 (1936) 241 34 46 69 81 133 250 381 703 982
2020-07-09 19:30 4.00 275 1140 (1987) 20 (1936) 241 34 46 69 81 133 250 381 703 982
2020-07-09 19:00 4.02 280 1140 (1987) 20 (1936) 241 34 46 69 81 133 250 381 703 982
2020-07-09 18:30 4.01 277 1140 (1987) 20 (1936) 241 34 46 69 81 133 250 381 703 982
2020-07-09 18:00 4.02 280 1140 (1987) 20 (1936) 241 34 46 69 81 133 250 381 703 982
2020-07-09 17:30 4.01 277 1140 (1987) 20 (1936) 241 34 46 69 81 133 250 381 703 982
2020-07-09 17:00 4.00 275 1140 (1987) 20 (1936) 241 34 46 69 81 133 250 381 703 982
2020-07-09 16:30 4.02 280 1140 (1987) 20 (1936) 241 34 46 69 81 133 250 381 703 982
2020-07-09 16:00 4.01 277 1140 (1987) 20 (1936) 241 34 46 69 81 133 250 381 703 982
2020-07-09 15:30 4.02 280 1140 (1987) 20 (1936) 241 34 46 69 81 133 250 381 703 982
2020-07-09 15:00 4.02 280 1140 (1987) 20 (1936) 241 34 46 69 81 133 250 381 703 982
2020-07-09 14:30 4.03 283 1140 (1987) 20 (1936) 241 34 46 69 81 133 250 381 703 982
2020-07-09 14:00 4.03 283 1140 (1987) 20 (1936) 241 34 46 69 81 133 250 381 703 982
2020-07-09 13:30 4.03 283 1140 (1987) 20 (1936) 241 34 46 69 81 133 250 381 703 982
2020-07-09 12:30 4.01 277 1140 (1987) 20 (1936) 241 34 46 69 81 133 250 381 703 982
2020-07-09 12:00 4.04 286 1140 (1987) 20 (1936) 241 34 46 69 81 133 250 381 703 982
2020-07-09 11:30 4.03 283 1140 (1987) 20 (1936) 241 34 46 69 81 133 250 381 703 982
2020-07-09 11:00 4.03 283 1140 (1987) 20 (1936) 241 34 46 69 81 133 250 381 703 982
2020-07-09 10:30 4.05 289 1140 (1987) 20 (1936) 241 34 46 69 81 133 250 381 703 982
2020-07-09 10:00 4.08 297 1140 (1987) 20 (1936) 241 34 46 69 81 133 250 381 703 982
2020-07-09 09:30 4.03 283 1140 (1987) 20 (1936) 241 34 46 69 81 133 250 381 703 982
2020-07-09 09:00 4.05 289 1140 (1987) 20 (1936) 241 34 46 69 81 133 250 381 703 982
2020-07-09 08:30 4.06 291 1140 (1987) 20 (1936) 241 34 46 69 81 133 250 381 703 982
2020-07-09 08:00 4.04 286 1140 (1987) 20 (1936) 241 34 46 69 81 133 250 381 703 982
2020-07-09 07:30 4.09 300 1140 (1987) 20 (1936) 241 34 46 69 81 133 250 381 703 982
2020-07-09 07:00 4.03 283 1140 (1987) 20 (1936) 241 34 46 69 81 133 250 381 703 982
2020-07-09 06:30 4.05 289 1140 (1987) 20 (1936) 241 34 46 69 81 133 250 381 703 982
2020-07-09 06:00 4.04 286 1140 (1987) 20 (1936) 241 34 46 69 81 133 250 381 703 982
2020-07-09 05:30 4.05 289 1140 (1987) 20 (1936) 241 34 46 69 81 133 250 381 703 982
2020-07-09 05:00 4.06 291 1140 (1987) 20 (1936) 241 34 46 69 81 133 250 381 703 982
2020-07-09 04:30 4.05 289 1140 (1987) 20 (1936) 241 34 46 69 81 133 250 381 703 982
2020-07-09 04:00 4.04 286 1140 (1987) 20 (1936) 241 34 46 69 81 133 250 381 703 982
2020-07-09 03:30 4.04 286 1140 (1987) 20 (1936) 241 34 46 69 81 133 250 381 703 982
2020-07-09 03:00 4.06 291 1140 (1987) 20 (1936) 241 34 46 69 81 133 250 381 703 982
2020-07-09 02:30 4.09 300 1140 (1987) 20 (1936) 241 34 46 69 81 133 250 381 703 982
2020-07-09 02:00 4.04 286 1140 (1987) 20 (1936) 241 34 46 69 81 133 250 381 703 982
2020-07-09 01:30 4.04 286 1140 (1987) 20 (1936) 241 34 46 69 81 133 250 381 703 982
2020-07-09 01:00 4.04 286 1140 (1987) 20 (1936) 241 34 46 69 81 133 250 381 703 982
2020-07-09 00:30 4.06 291 1140 (1987) 20 (1936) 241 34 46 69 81 133 250 381 703 982
2020-07-09 00:00 4.05 289 1140 (1987) 20 (1936) 241 34 46 69 81 133 250 381 703 982
2020-07-08 23:30 4.05 289 1890 (2000) 14 (2012) 268 35 47 68 88 139 248 336 710 1120
2020-07-08 23:00 4.06 291 1890 (2000) 14 (2012) 268 35 47 68 88 139 248 336 710 1120
2020-07-08 22:30 4.06 291 1890 (2000) 14 (2012) 268 35 47 68 88 139 248 336 710 1120
2020-07-08 22:00 4.06 291 1890 (2000) 14 (2012) 268 35 47 68 88 139 248 336 710 1120
2020-07-08 21:30 4.07 294 1890 (2000) 14 (2012) 268 35 47 68 88 139 248 336 710 1120
2020-07-08 21:00 4.06 291 1890 (2000) 14 (2012) 268 35 47 68 88 139 248 336 710 1120
2020-07-08 20:30 4.07 294 1890 (2000) 14 (2012) 268 35 47 68 88 139 248 336 710 1120
2020-07-08 20:00 4.06 291 1890 (2000) 14 (2012) 268 35 47 68 88 139 248 336 710 1120
2020-07-08 19:30 4.07 294 1890 (2000) 14 (2012) 268 35 47 68 88 139 248 336 710 1120
2020-07-08 19:00 4.07 294 1890 (2000) 14 (2012) 268 35 47 68 88 139 248 336 710 1120
2020-07-08 18:30 4.07 294 1890 (2000) 14 (2012) 268 35 47 68 88 139 248 336 710 1120
2020-07-08 18:00 4.07 294 1890 (2000) 14 (2012) 268 35 47 68 88 139 248 336 710 1120
2020-07-08 17:30 4.08 297 1890 (2000) 14 (2012) 268 35 47 68 88 139 248 336 710 1120
2020-07-08 17:00 4.06 291 1890 (2000) 14 (2012) 268 35 47 68 88 139 248 336 710 1120
2020-07-08 16:30 4.11 306 1890 (2000) 14 (2012) 268 35 47 68 88 139 248 336 710 1120
2020-07-08 16:00 4.09 300 1890 (2000) 14 (2012) 268 35 47 68 88 139 248 336 710 1120
2020-07-08 15:30 4.09 300 1890 (2000) 14 (2012) 268 35 47 68 88 139 248 336 710 1120
2020-07-08 15:00 4.09 300 1890 (2000) 14 (2012) 268 35 47 68 88 139 248 336 710 1120
2020-07-08 14:30 4.09 300 1890 (2000) 14 (2012) 268 35 47 68 88 139 248 336 710 1120
2020-07-08 14:00 4.09 300 1890 (2000) 14 (2012) 268 35 47 68 88 139 248 336 710 1120
2020-07-08 13:30 4.08 297 1890 (2000) 14 (2012) 268 35 47 68 88 139 248 336 710 1120
2020-07-08 13:00 4.09 300 1890 (2000) 14 (2012) 268 35 47 68 88 139 248 336 710 1120
2020-07-08 12:30 4.10 303 1890 (2000) 14 (2012) 268 35 47 68 88 139 248 336 710 1120
2020-07-08 12:00 4.10 303 1890 (2000) 14 (2012) 268 35 47 68 88 139 248 336 710 1120
2020-07-08 11:30 4.10 303 1890 (2000) 14 (2012) 268 35 47 68 88 139 248 336 710 1120
2020-07-08 11:00 4.11 306 1890 (2000) 14 (2012) 268 35 47 68 88 139 248 336 710 1120
2020-07-08 10:30 4.10 303 1890 (2000) 14 (2012) 268 35 47 68 88 139 248 336 710 1120
2020-07-08 10:00 4.11 306 1890 (2000) 14 (2012) 268 35 47 68 88 139 248 336 710 1120
2020-07-08 09:30 4.15 318 1890 (2000) 14 (2012) 268 35 47 68 88 139 248 336 710 1120
2020-07-08 09:00 4.18 327 1890 (2000) 14 (2012) 268 35 47 68 88 139 248 336 710 1120
2020-07-08 08:30 4.07 294 1890 (2000) 14 (2012) 268 35 47 68 88 139 248 336 710 1120
2020-07-08 08:00 4.09 300 1890 (2000) 14 (2012) 268 35 47 68 88 139 248 336 710 1120
2020-07-08 07:30 4.09 300 1890 (2000) 14 (2012) 268 35 47 68 88 139 248 336 710 1120
2020-07-08 07:00 4.08 297 1890 (2000) 14 (2012) 268 35 47 68 88 139 248 336 710 1120
2020-07-08 06:30 4.09 300 1890 (2000) 14 (2012) 268 35 47 68 88 139 248 336 710 1120
2020-07-08 06:00 4.09 300 1890 (2000) 14 (2012) 268 35 47 68 88 139 248 336 710 1120
2020-07-08 05:30 4.08 297 1890 (2000) 14 (2012) 268 35 47 68 88 139 248 336 710 1120
2020-07-08 05:00 4.11 306 1890 (2000) 14 (2012) 268 35 47 68 88 139 248 336 710 1120
2020-07-08 04:30 4.09 300 1890 (2000) 14 (2012) 268 35 47 68 88 139 248 336 710 1120
2020-07-08 04:00 4.08 297 1890 (2000) 14 (2012) 268 35 47 68 88 139 248 336 710 1120
2020-07-08 03:30 4.09 300 1890 (2000) 14 (2012) 268 35 47 68 88 139 248 336 710 1120
2020-07-08 03:00 4.10 303 1890 (2000) 14 (2012) 268 35 47 68 88 139 248 336 710 1120
2020-07-08 02:30 4.09 300 1890 (2000) 14 (2012) 268 35 47 68 88 139 248 336 710 1120
2020-07-08 02:00 4.09 300 1890 (2000) 14 (2012) 268 35 47 68 88 139 248 336 710 1120
2020-07-08 01:30 4.09 300 1890 (2000) 14 (2012) 268 35 47 68 88 139 248 336 710 1120
2020-07-08 01:00 4.09 300 1890 (2000) 14 (2012) 268 35 47 68 88 139 248 336 710 1120
2020-07-08 00:30 4.11 306 1890 (2000) 14 (2012) 268 35 47 68 88 139 248 336 710 1120
2020-07-08 00:00 4.13 312 1890 (2000) 14 (2012) 268 35 47 68 88 139 248 336 710 1120
2020-07-07 23:30 4.09 300 5180 (1948) 16 (2012) 315 36 49 72 90 150 314 405 661 1210
2020-07-07 23:00 4.13 312 5180 (1948) 16 (2012) 315 36 49 72 90 150 314 405 661 1210
2020-07-07 22:30 4.10 303 5180 (1948) 16 (2012) 315 36 49 72 90 150 314 405 661 1210
2020-07-07 22:00 4.11 306 5180 (1948) 16 (2012) 315 36 49 72 90 150 314 405 661 1210
2020-07-07 21:30 4.11 306 5180 (1948) 16 (2012) 315 36 49 72 90 150 314 405 661 1210
2020-07-07 21:00 4.12 309 5180 (1948) 16 (2012) 315 36 49 72 90 150 314 405 661 1210
2020-07-07 20:30 4.11 306 5180 (1948) 16 (2012) 315 36 49 72 90 150 314 405 661 1210
2020-07-07 20:00 4.12 309 5180 (1948) 16 (2012) 315 36 49 72 90 150 314 405 661 1210
2020-07-07 19:30 4.11 306 5180 (1948) 16 (2012) 315 36 49 72 90 150 314 405 661 1210
2020-07-07 19:00 4.13 312 5180 (1948) 16 (2012) 315 36 49 72 90 150 314 405 661 1210
2020-07-07 18:30 4.13 312 5180 (1948) 16 (2012) 315 36 49 72 90 150 314 405 661 1210
2020-07-07 18:00 4.15 318 5180 (1948) 16 (2012) 315 36 49 72 90 150 314 405 661 1210
2020-07-07 17:30 4.15 318 5180 (1948) 16 (2012) 315 36 49 72 90 150 314 405 661 1210
2020-07-07 17:00 4.16 321 5180 (1948) 16 (2012) 315 36 49 72 90 150 314 405 661 1210
2020-07-07 16:30 4.16 321 5180 (1948) 16 (2012) 315 36 49 72 90 150 314 405 661 1210
2020-07-07 16:00 4.15 318 5180 (1948) 16 (2012) 315 36 49 72 90 150 314 405 661 1210
2020-07-07 15:30 4.12 309 5180 (1948) 16 (2012) 315 36 49 72 90 150 314 405 661 1210
2020-07-07 15:00 4.12 309 5180 (1948) 16 (2012) 315 36 49 72 90 150 314 405 661 1210
2020-07-07 14:30 4.13 312 5180 (1948) 16 (2012) 315 36 49 72 90 150 314 405 661 1210
2020-07-07 14:00 4.13 312 5180 (1948) 16 (2012) 315 36 49 72 90 150 314 405 661 1210
2020-07-07 13:30 4.15 318 5180 (1948) 16 (2012) 315 36 49 72 90 150 314 405 661 1210
2020-07-07 13:00 4.14 315 5180 (1948) 16 (2012) 315 36 49 72 90 150 314 405 661 1210
2020-07-07 12:30 4.15 318 5180 (1948) 16 (2012) 315 36 49 72 90 150 314 405 661 1210
2020-07-07 12:00 4.14 315 5180 (1948) 16 (2012) 315 36 49 72 90 150 314 405 661 1210
2020-07-07 11:30 4.14 315 5180 (1948) 16 (2012) 315 36 49 72 90 150 314 405 661 1210
2020-07-07 11:00 4.14 315 5180 (1948) 16 (2012) 315 36 49 72 90 150 314 405 661 1210
2020-07-07 10:30 4.16 321 5180 (1948) 16 (2012) 315 36 49 72 90 150 314 405 661 1210
2020-07-07 10:00 4.16 321 5180 (1948) 16 (2012) 315 36 49 72 90 150 314 405 661 1210
2020-07-07 09:30 4.16 321 5180 (1948) 16 (2012) 315 36 49 72 90 150 314 405 661 1210
2020-07-07 09:00 4.14 315 5180 (1948) 16 (2012) 315 36 49 72 90 150 314 405 661 1210
2020-07-07 08:30 4.14 315 5180 (1948) 16 (2012) 315 36 49 72 90 150 314 405 661 1210
2020-07-07 08:00 4.15 318 5180 (1948) 16 (2012) 315 36 49 72 90 150 314 405 661 1210
2020-07-07 07:30 4.14 315 5180 (1948) 16 (2012) 315 36 49 72 90 150 314 405 661 1210
2020-07-07 07:00 4.17 324 5180 (1948) 16 (2012) 315 36 49 72 90 150 314 405 661 1210
2020-07-07 06:30 4.16 321 5180 (1948) 16 (2012) 315 36 49 72 90 150 314 405 661 1210
2020-07-07 06:00 4.15 318 5180 (1948) 16 (2012) 315 36 49 72 90 150 314 405 661 1210
2020-07-07 05:30 4.16 321 5180 (1948) 16 (2012) 315 36 49 72 90 150 314 405 661 1210
2020-07-07 05:00 4.16 321 5180 (1948) 16 (2012) 315 36 49 72 90 150 314 405 661 1210
2020-07-07 04:30 4.16 321 5180 (1948) 16 (2012) 315 36 49 72 90 150 314 405 661 1210
2020-07-07 04:00 4.17 324 5180 (1948) 16 (2012) 315 36 49 72 90 150 314 405 661 1210
2020-07-07 03:30 4.17 324 5180 (1948) 16 (2012) 315 36 49 72 90 150 314 405 661 1210
2020-07-07 03:00 4.17 324 5180 (1948) 16 (2012) 315 36 49 72 90 150 314 405 661 1210
2020-07-07 02:30 4.16 321 5180 (1948) 16 (2012) 315 36 49 72 90 150 314 405 661 1210
2020-07-07 02:00 4.18 327 5180 (1948) 16 (2012) 315 36 49 72 90 150 314 405 661 1210
2020-07-07 01:30 4.19 330 5180 (1948) 16 (2012) 315 36 49 72 90 150 314 405 661 1210
2020-07-07 01:00 4.21 336 5180 (1948) 16 (2012) 315 36 49 72 90 150 314 405 661 1210
2020-07-07 00:30 4.18 327 5180 (1948) 16 (2012) 315 36 49 72 90 150 314 405 661 1210
2020-07-07 00:00 4.17 324 5180 (1948) 16 (2012) 315 36 49 72 90 150 314 405 661 1210
2020-07-06 23:30 4.18 327 3670 (1948) 17 (2012) 293 37 43 74 83 152 274 359 639 1010
2020-07-06 23:00 4.19 330 3670 (1948) 17 (2012) 293 37 43 74 83 152 274 359 639 1010
2020-07-06 22:30 4.20 333 3670 (1948) 17 (2012) 293 37 43 74 83 152 274 359 639 1010
2020-07-06 22:00 4.18 327 3670 (1948) 17 (2012) 293 37 43 74 83 152 274 359 639 1010
2020-07-06 21:30 4.20 333 3670 (1948) 17 (2012) 293 37 43 74 83 152 274 359 639 1010
2020-07-06 21:00 4.20 333 3670 (1948) 17 (2012) 293 37 43 74 83 152 274 359 639 1010
2020-07-06 20:30 4.20 333 3670 (1948) 17 (2012) 293 37 43 74 83 152 274 359 639 1010
2020-07-06 20:00 4.26 352 3670 (1948) 17 (2012) 293 37 43 74 83 152 274 359 639 1010
2020-07-06 19:30 4.21 336 3670 (1948) 17 (2012) 293 37 43 74 83 152 274 359 639 1010
2020-07-06 19:00 4.20 333 3670 (1948) 17 (2012) 293 37 43 74 83 152 274 359 639 1010
2020-07-06 18:30 4.23 343 3670 (1948) 17 (2012) 293 37 43 74 83 152 274 359 639 1010
2020-07-06 18:00 4.22 339 3670 (1948) 17 (2012) 293 37 43 74 83 152 274 359 639 1010
2020-07-06 17:30 4.21 336 3670 (1948) 17 (2012) 293 37 43 74 83 152 274 359 639 1010
2020-07-06 17:00 4.23 343 3670 (1948) 17 (2012) 293 37 43 74 83 152 274 359 639 1010
2020-07-06 16:30 4.23 343 3670 (1948) 17 (2012) 293 37 43 74 83 152 274 359 639 1010
2020-07-06 16:00 4.21 336 3670 (1948) 17 (2012) 293 37 43 74 83 152 274 359 639 1010
2020-07-06 15:30 4.23 343 3670 (1948) 17 (2012) 293 37 43 74 83 152 274 359 639 1010
2020-07-06 15:00 4.24 346 3670 (1948) 17 (2012) 293 37 43 74 83 152 274 359 639 1010
2020-07-06 14:30 4.24 346 3670 (1948) 17 (2012) 293 37 43 74 83 152 274 359 639 1010
2020-07-06 14:00 4.26 352 3670 (1948) 17 (2012) 293 37 43 74 83 152 274 359 639 1010
2020-07-06 13:30 4.30 365 3670 (1948) 17 (2012) 293 37 43 74 83 152 274 359 639 1010
2020-07-06 13:00 4.29 362 3670 (1948) 17 (2012) 293 37 43 74 83 152 274 359 639 1010
2020-07-06 12:30 4.31 368 3670 (1948) 17 (2012) 293 37 43 74 83 152 274 359 639 1010
2020-07-06 12:00 4.28 358 3670 (1948) 17 (2012) 293 37 43 74 83 152 274 359 639 1010
2020-07-06 11:30 4.30 365 3670 (1948) 17 (2012) 293 37 43 74 83 152 274 359 639 1010
2020-07-06 11:00 4.31 368 3670 (1948) 17 (2012) 293 37 43 74 83 152 274 359 639 1010
2020-07-06 10:30 4.31 368 3670 (1948) 17 (2012) 293 37 43 74 83 152 274 359 639 1010
2020-07-06 10:00 4.31 368 3670 (1948) 17 (2012) 293 37 43 74 83 152 274 359 639 1010
2020-07-06 09:30 4.30 365 3670 (1948) 17 (2012) 293 37 43 74 83 152 274 359 639 1010
2020-07-06 09:00 4.25 349 3670 (1948) 17 (2012) 293 37 43 74 83 152 274 359 639 1010
2020-07-06 08:30 4.28 358 3670 (1948) 17 (2012) 293 37 43 74 83 152 274 359 639 1010
2020-07-06 08:00 4.28 358 3670 (1948) 17 (2012) 293 37 43 74 83 152 274 359 639 1010
2020-07-06 07:30 4.28 358 3670 (1948) 17 (2012) 293 37 43 74 83 152 274 359 639 1010
2020-07-06 07:00 4.28 358 3670 (1948) 17 (2012) 293 37 43 74 83 152 274 359 639 1010
2020-07-06 06:30 4.28 358 3670 (1948) 17 (2012) 293 37 43 74 83 152 274 359 639 1010
2020-07-06 06:00 4.28 358 3670 (1948) 17 (2012) 293 37 43 74 83 152 274 359 639 1010
2020-07-06 05:30 4.30 365 3670 (1948) 17 (2012) 293 37 43 74 83 152 274 359 639 1010
2020-07-06 05:00 4.28 358 3670 (1948) 17 (2012) 293 37 43 74 83 152 274 359 639 1010
2020-07-06 04:30 4.30 365 3670 (1948) 17 (2012) 293 37 43 74 83 152 274 359 639 1010
2020-07-06 04:00 4.30 365 3670 (1948) 17 (2012) 293 37 43 74 83 152 274 359 639 1010
2020-07-06 03:30 4.30 365 3670 (1948) 17 (2012) 293 37 43 74 83 152 274 359 639 1010
2020-07-06 03:00 4.31 368 3670 (1948) 17 (2012) 293 37 43 74 83 152 274 359 639 1010
2020-07-06 02:30 4.32 372 3670 (1948) 17 (2012) 293 37 43 74 83 152 274 359 639 1010
2020-07-06 02:00 4.33 375 3670 (1948) 17 (2012) 293 37 43 74 83 152 274 359 639 1010
2020-07-06 01:30 4.32 372 3670 (1948) 17 (2012) 293 37 43 74 83 152 274 359 639 1010
2020-07-06 01:00 4.33 375 3670 (1948) 17 (2012) 293 37 43 74 83 152 274 359 639 1010
2020-07-06 00:30 4.35 381 3670 (1948) 17 (2012) 293 37 43 74 83 152 274 359 639 1010
2020-07-06 00:00 4.36 385 3670 (1948) 17 (2012) 293 37 43 74 83 152 274 359 639 1010

A total of 365 rows are displayed for years 1921 through 2019.